Time;durP1;ratioP1;P1;durP2;ratioP2;P2;SDS_P1;SDS_P2;PMS_P1;PMS_P2;Temp;Humidity;BMP_temperature;BMP_pressure;BME280_temperature;BME280_humidity;BME280_pressure;Samples;Min_cycle;Max_cycle;Signal;HPM_P1;HPM_P2
2022/03/14 00:03:53;;;;;;;15.35;9.45;;;;;;;8.25;34.21;100568.31;8269875;34;20412;-74
2022/03/14 00:08:57;;;;;;;13.32;9.40;;;;;;;8.33;33.42;100565.13;8270709;34;20191;-74
2022/03/14 00:14:03;;;;;;;16.88;9.57;;;;;;;8.38;33.32;100569.19;8270413;34;21009;-74
2022/03/14 00:19:09;;;;;;;14.35;9.50;;;;;;;8.47;32.72;100567.75;8271800;34;20152;-74
2022/03/14 00:24:12;;;;;;;12.55;9.40;;;;;;;8.49;32.92;100576.53;8267144;34;20196;-75
2022/03/14 00:29:18;;;;;;;13.10;9.52;;;;;;;8.47;33.22;100583.81;8309722;34;20917;-74
2022/03/14 00:34:23;;;;;;;13.50;9.55;;;;;;;8.47;33.52;100583.81;8331852;34;20512;-73
2022/03/14 00:39:26;;;;;;;16.10;9.70;;;;;;;8.40;34.04;100588.69;8339754;34;20156;-74
2022/03/14 00:44:31;;;;;;;12.48;9.27;;;;;;;8.32;34.19;100588.38;8328882;34;20289;-74
2022/03/14 00:49:36;;;;;;;14.02;9.18;;;;;;;8.29;33.71;100591.25;8317926;34;20191;-74
2022/03/14 00:54:41;;;;;;;14.02;9.52;;;;;;;8.28;33.69;100594.03;8319148;34;20440;-74
2022/03/14 00:59:44;;;;;;;14.07;9.48;;;;;;;8.21;33.89;100585.56;8317907;34;20500;-74
2022/03/14 01:04:49;;;;;;;12.95;9.52;;;;;;;8.13;33.75;100585.22;8320143;34;20454;-74
2022/03/14 01:09:52;;;;;;;13.52;9.27;;;;;;;8.17;33.82;100592.06;8255995;34;20300;-74
2022/03/14 01:14:56;;;;;;;11.68;9.57;;;;;;;8.16;33.84;100595.72;8266471;34;21175;-74
2022/03/14 01:20:00;;;;;;;15.57;9.45;;;;;;;8.21;33.32;100598.94;8266611;34;20219;-74
2022/03/14 01:25:04;;;;;;;14.15;9.65;;;;;;;8.25;33.61;100605.78;8267996;34;20486;-74
2022/03/14 01:30:09;;;;;;;15.93;9.05;;;;;;;8.31;33.23;100610.75;8241666;34;21899;-74
2022/03/14 01:35:17;;;;;;;13.30;9.18;;;;;;;8.31;32.96;100607.19;8262600;34;20215;-74
2022/03/14 01:40:21;;;;;;;14.18;9.32;;;;;;;8.23;33.45;100615.78;8265336;34;20152;-73
2022/03/14 01:45:24;;;;;;;16.35;10.27;;;;;;;8.23;33.39;100622.91;8266679;34;20243;-73
2022/03/14 01:50:29;;;;;;;14.65;9.20;;;;;;;8.25;33.88;100629.03;8267588;34;20423;-73
2022/03/14 01:55:32;;;;;;;14.30;9.05;;;;;;;8.27;34.84;100630.66;8261572;34;20199;-74
2022/03/14 02:00:35;;;;;;;14.18;9.30;;;;;;;8.19;35.84;100638.34;8262051;34;20180;-74
2022/03/14 02:05:40;;;;;;;12.80;9.25;;;;;;;8.17;36.59;100645.59;8263447;34;20529;-74
2022/03/14 02:10:43;;;;;;;15.45;9.63;;;;;;;8.08;37.69;100647.06;8260679;34;20274;-74
2022/03/14 02:15:49;;;;;;;12.35;8.68;;;;;;;8.06;37.61;100646.31;8266092;34;21912;-73
2022/03/14 02:20:53;;;;;;;15.35;9.43;;;;;;;8.15;38.40;100648.38;8266824;34;20636;-74
2022/03/14 02:25:56;;;;;;;13.38;9.70;;;;;;;8.14;37.60;100657.34;8265516;34;20514;-74
2022/03/14 02:31:02;;;;;;;13.90;9.05;;;;;;;8.07;40.10;100665.91;8263373;34;20445;-74
2022/03/14 02:36:06;;;;;;;16.38;9.45;;;;;;;7.98;42.63;100667.38;8266376;34;20151;-74
2022/03/14 02:41:10;;;;;;;14.23;10.13;;;;;;;7.91;43.84;100674.09;8273808;34;20441;-73
2022/03/14 02:46:13;;;;;;;13.52;9.73;;;;;;;7.94;43.43;100671.22;8267238;34;20492;-74
2022/03/14 02:51:18;;;;;;;14.30;9.50;;;;;;;7.89;42.71;100666.16;8260218;34;20503;-74
2022/03/14 02:56:21;;;;;;;13.23;10.35;;;;;;;7.91;42.36;100674.09;8258254;34;21423;-73
2022/03/14 03:01:24;;;;;;;15.38;10.05;;;;;;;7.94;42.10;100687.25;8259677;34;20209;-74
2022/03/14 03:06:29;;;;;;;15.40;11.05;;;;;;;7.92;43.82;100684.66;8265214;34;20422;-74
2022/03/14 03:11:33;;;;;;;16.63;9.90;;;;;;;7.82;45.33;100701.44;8266596;34;20587;-74
2022/03/14 03:16:37;;;;;;;14.43;9.98;;;;;;;7.59;48.37;100708.25;8263409;34;20446;-74
2022/03/14 03:21:42;;;;;;;17.25;11.35;;;;;;;7.35;50.81;100716.88;8316162;34;20402;-74
2022/03/14 03:26:45;;;;;;;15.45;10.50;;;;;;;7.12;50.45;100723.63;8321118;34;20795;-74
2022/03/14 03:31:48;;;;;;;18.10;10.23;;;;;;;6.81;50.18;100728.13;8325453;34;20643;-73
2022/03/14 03:36:52;;;;;;;13.98;10.02;;;;;;;6.56;53.79;100743.88;8327779;34;20603;-73
2022/03/14 03:41:55;;;;;;;18.20;11.55;;;;;;;6.70;61.03;100761.75;8322187;34;20442;-73
2022/03/14 03:46:58;;;;;;;19.93;10.57;;;;;;;6.64;58.85;100773.66;8322278;34;20496;-74
2022/03/14 03:52:03;;;;;;;14.15;10.48;;;;;;;6.73;59.77;100774.91;8322339;34;20910;-74
2022/03/14 03:57:07;;;;;;;19.55;10.43;;;;;;;6.64;55.94;100779.00;8322305;34;20429;-73
2022/03/14 04:02:10;;;;;;;15.25;9.75;;;;;;;6.58;57.54;100788.22;8319567;34;20209;-75
2022/03/14 04:07:18;;;;;;;15.90;10.43;;;;;;;6.34;54.65;100795.81;8318847;34;20202;-72
2022/03/14 04:12:22;;;;;;;16.65;11.15;;;;;;;6.02;59.33;100807.44;8322641;34;22504;-73
2022/03/14 04:17:27;;;;;;;17.85;11.00;;;;;;;5.72;55.72;100821.47;8297538;34;20521;-75
2022/03/14 04:22:32;;;;;;;18.67;10.70;;;;;;;5.81;56.77;100822.78;8297281;34;20996;-73
2022/03/14 04:27:35;;;;;;;20.55;12.85;;;;;;;5.86;67.22;100832.25;8316407;34;20603;-74
2022/03/14 04:32:38;;;;;;;22.02;12.50;;;;;;;5.70;72.76;100842.03;8325368;34;20201;-74
2022/03/14 04:37:42;;;;;;;20.95;13.27;;;;;;;5.54;77.61;100854.44;8322096;34;20147;-75
2022/03/14 04:42:45;;;;;;;21.30;14.32;;;;;;;5.39;80.50;100867.63;8317915;34;20471;-74
2022/03/14 04:47:48;;;;;;;25.40;14.82;;;;;;;5.27;81.92;100873.59;8294512;34;20553;-75
2022/03/14 04:52:53;;;;;;;20.58;13.98;;;;;;;5.25;81.37;100873.66;8315126;34;20924;-74
2022/03/14 04:57:56;;;;;;;23.58;13.63;;;;;;;4.71;76.28;100888.75;8311330;34;20191;-74
2022/03/14 05:03:01;;;;;;;18.65;11.68;;;;;;;4.28;73.94;100901.44;8288225;34;20767;-75
2022/03/14 05:08:09;;;;;;;23.02;13.32;;;;;;;4.35;75.67;100902.88;8287582;34;20446;-74
2022/03/14 05:13:12;;;;;;;24.85;14.68;;;;;;;4.58;78.25;100900.91;8312094;34;20449;-74
2022/03/14 05:18:15;;;;;;;28.13;15.63;;;;;;;4.60;79.30;100915.00;8325354;34;20539;-74
2022/03/14 05:23:20;;;;;;;27.02;15.93;;;;;;;4.76;80.20;100916.00;8314390;34;20493;-74
2022/03/14 05:28:24;;;;;;;30.20;17.40;;;;;;;4.78;81.36;100930.09;8315182;34;20457;-74
2022/03/14 05:33:27;;;;;;;30.55;16.83;;;;;;;4.80;81.81;100933.56;8319015;34;20359;-75
2022/03/14 05:38:31;;;;;;;33.75;17.92;;;;;;;4.77;83.69;100941.69;8322180;34;20250;-74
2022/03/14 05:43:37;;;;;;;35.75;17.10;;;;;;;4.87;84.16;100950.09;8327359;34;21104;-75
2022/03/14 05:48:40;;;;;;;30.90;16.63;;;;;;;4.93;84.32;100954.25;8332846;34;20159;-75
2022/03/14 05:53:44;;;;;;;35.13;18.27;;;;;;;5.08;84.69;100958.03;8334194;34;20158;-75
2022/03/14 05:58:47;;;;;;;34.35;19.02;;;;;;;5.14;85.07;100958.56;8325838;34;20498;-74
2022/03/14 06:03:51;;;;;;;36.50;18.98;;;;;;;5.02;86.10;100973.38;8325652;34;20484;-75
2022/03/14 06:08:55;;;;;;;31.63;17.70;;;;;;;5.10;86.67;100974.78;8324086;34;20779;-76
2022/03/14 06:13:58;;;;;;;40.42;20.75;;;;;;;5.00;88.12;100993.00;8324099;34;20562;-75
2022/03/14 06:19:01;;;;;;;38.10;20.10;;;;;;;5.04;89.15;100992.75;8321587;34;20438;-76
2022/03/14 06:24:08;;;;;;;41.45;20.80;;;;;;;5.05;89.97;101005.16;8293156;34;20592;-75
2022/03/14 06:29:13;;;;;;;37.72;20.38;;;;;;;5.06;90.17;101012.22;8318598;34;20465;-75
2022/03/14 06:34:18;;;;;;;34.15;21.25;;;;;;;5.09;90.94;101019.19;8304828;34;20245;-75
2022/03/14 06:39:22;;;;;;;42.13;21.13;;;;;;;5.21;90.78;101013.28;8314257;34;21841;-75
2022/03/14 06:44:28;;;;;;;4.53;4.22;;;;;;;5.16;91.42;101031.28;8290176;34;20487;-75
2022/03/14 06:49:32;;;;;;;2.08;1.95;;;;;;;5.13;91.80;101030.53;8313755;34;20147;-76
2022/03/14 06:54:37;;;;;;;1.60;1.60;;;;;;;5.11;92.54;101029.78;8313541;34;20569;-76
2022/03/14 06:59:40;;;;;;;1.85;1.73;;;;;;;5.29;92.58;101039.53;8313279;34;20223;-75
2022/03/14 07:04:43;;;;;;;3.95;3.65;;;;;;;5.32;92.46;101041.19;8310660;34;20210;-75
2022/03/14 07:09:47;;;;;;;1.73;1.63;;;;;;;5.21;94.02;101055.00;8305738;34;20179;-75
2022/03/14 07:14:50;;;;;;;1.13;1.08;;;;;;;5.42;93.75;101051.31;8306389;34;20481;-75
2022/03/14 07:19:53;;;;;;;0.75;0.75;;;;;;;5.36;94.39;101048.09;8312324;34;20445;-74
2022/03/14 07:24:59;;;;;;;0.65;0.65;;;;;;;5.29;95.10;101066.16;8322059;34;20438;-74
2022/03/14 07:30:02;;;;;;;3.97;2.33;;;;;;;5.34;94.76;101063.28;8337837;34;20570;-75
2022/03/14 07:35:06;;;;;;;0.85;0.85;;;;;;;5.61;93.53;101071.75;8319071;34;20253;-75
2022/03/14 07:40:16;;;;;;;1.27;1.27;;;;;;;5.65;92.56;101078.63;8292457;34;20909;-75
2022/03/14 07:45:27;;;;;;;1.75;1.50;;;;;;;5.57;93.22;101086.13;8310833;34;20164;-75
2022/03/14 07:50:30;;;;;;;3.22;2.20;;;;;;;5.60;93.25;101089.53;8313727;34;20506;-75
2022/03/14 07:55:35;;;;;;;2.08;2.00;;;;;;;5.71;92.33;101089.00;8310435;34;20710;-77
2022/03/14 08:00:38;;;;;;;5.20;2.60;;;;;;;6.00;92.88;101084.88;8311123;34;20189;-77
2022/03/14 08:05:42;;;;;;;3.30;1.92;;;;;;;6.16;92.57;101084.94;8313098;34;20567;-76
2022/03/14 08:10:47;;;;;;;1.98;1.83;;;;;;;6.11;91.58;101079.00;8302820;34;20262;-75
2022/03/14 08:15:50;;;;;;;0.70;0.70;;;;;;;6.27;91.73;101073.72;8303435;34;20420;-76
2022/03/14 08:20:57;;;;;;;1.73;1.60;;;;;;;6.42;92.43;101088.06;8323632;34;20431;-75
2022/03/14 08:26:01;;;;;;;2.03;1.92;;;;;;;6.37;92.63;101080.31;8307190;34;21391;-73
2022/03/14 08:31:05;;;;;;;1.20;1.17;;;;;;;6.11;93.83;101089.66;8324523;34;20433;-73
2022/03/14 08:36:09;;;;;;;1.05;1.05;;;;;;;6.32;95.62;101077.88;8321026;34;20131;-74
2022/03/14 08:41:15;;;;;;;1.35;1.35;;;;;;;6.36;95.03;101086.56;8297931;34;20443;-73
2022/03/14 08:46:18;;;;;;;0.65;0.65;;;;;;;6.18;93.76;101097.28;8322726;34;20491;-74
2022/03/14 08:51:22;;;;;;;4.68;4.25;;;;;;;6.03;94.46;101105.19;8306730;34;20420;-73
2022/03/14 08:56:26;;;;;;;0.95;0.95;;;;;;;6.17;95.30;101108.91;8285447;34;20257;-73
2022/03/14 09:01:29;;;;;;;0.30;0.30;;;;;;;6.07;94.46;101125.44;8321549;34;20536;-74
2022/03/14 09:06:35;;;;;;;0.40;0.40;;;;;;;5.85;95.07;101131.84;8331973;34;20167;-73
2022/03/14 09:11:40;;;;;;;0.77;0.77;;;;;;;5.96;94.84;101125.97;8287378;34;20437;-73
2022/03/14 09:16:44;;;;;;;0.93;0.93;;;;;;;6.04;94.47;101129.13;8280608;34;20506;-73
2022/03/14 09:21:47;;;;;;;1.30;1.30;;;;;;;5.97;94.57;101132.16;8282226;34;20602;-73
2022/03/14 09:26:59;;;;;;;5.18;1.17;;;;;;;6.08;94.06;101138.69;8293666;34;20240;-73
2022/03/14 09:32:02;;;;;;;0.50;0.50;;;;;;;6.10;93.82;101142.16;8265310;34;20195;-74
2022/03/14 09:37:06;;;;;;;1.95;1.23;;;;;;;6.28;94.13;101140.38;8278747;34;20172;-73
2022/03/14 09:42:14;;;;;;;0.80;0.80;;;;;;;6.31;93.40;101134.00;8238128;34;20286;-73
2022/03/14 09:47:19;;;;;;;0.50;0.50;;;;;;;6.38;93.58;101146.09;8255583;34;20630;-74
2022/03/14 09:52:22;;;;;;;1.38;1.38;;;;;;;6.40;93.06;101147.72;8255865;34;20243;-73
2022/03/14 09:57:27;;;;;;;1.48;1.48;;;;;;;6.37;93.22;101168.38;8257355;34;20426;-73
2022/03/14 10:02:37;;;;;;;1.40;0.95;;;;;;;6.27;93.54;101172.44;8256656;34;20559;-72
2022/03/14 10:07:43;;;;;;;1.27;1.20;;;;;;;6.47;92.49;101172.28;8260107;34;20441;-72
2022/03/14 10:12:53;;;;;;;1.02;1.02;;;;;;;6.42;92.47;101178.81;8249816;34;20444;-73
2022/03/14 10:17:57;;;;;;;0.40;0.40;;;;;;;6.42;92.57;101192.16;8292261;34;20303;-73
2022/03/14 10:23:00;;;;;;;0.40;0.40;;;;;;;6.46;92.51;101191.06;8285321;34;20196;-72
2022/03/14 10:28:09;;;;;;;5.30;0.95;;;;;;;6.32;92.71;101194.44;8289644;34;21297;-72
2022/03/14 10:33:14;;;;;;;0.90;0.90;;;;;;;6.36;92.16;101196.88;8280164;34;20495;-73
2022/03/14 10:38:19;;;;;;;1.33;1.33;;;;;;;6.38;93.21;101205.66;8316672;34;20190;-73
2022/03/14 10:43:27;;;;;;;1.77;1.55;;;;;;;6.37;93.68;101211.94;8296828;34;20258;-73
2022/03/14 10:48:38;;;;;;;1.27;1.27;;;;;;;6.74;95.21;101214.53;8268536;34;20159;-71
2022/03/14 10:53:44;;;;;;;0.88;0.88;;;;;;;6.73;94.01;101226.16;8290345;34;20561;-73
2022/03/14 10:58:49;;;;;;;1.10;1.10;;;;;;;6.68;93.72;101220.19;8230091;34;20448;-72
2022/03/14 11:03:59;;;;;;;2.95;2.45;;;;;;;6.20;95.98;101224.38;8198113;34;20171;-73
2022/03/14 11:09:04;;;;;;;0.93;0.93;;;;;;;6.52;94.79;101228.97;8242026;34;20474;-72
2022/03/14 11:14:14;;;;;;;0.85;0.80;;;;;;;6.67;95.91;101227.34;8242413;34;21217;-72
2022/03/14 11:19:17;;;;;;;1.63;1.52;;;;;;;6.90;95.13;101234.19;8264428;34;20425;-72
2022/03/14 11:24:20;;;;;;;1.10;1.10;;;;;;;6.80;94.91;101232.91;8264885;34;20599;-73
2022/03/14 11:29:28;;;;;;;0.55;0.55;;;;;;;6.77;94.21;101241.94;8266537;34;20167;-73
2022/03/14 11:34:32;;;;;;;1.00;1.00;;;;;;;6.96;92.99;101236.53;8266050;34;20195;-72
2022/03/14 11:39:37;;;;;;;2.72;1.98;;;;;;;7.20;92.39;101233.53;8264236;34;20172;-72
2022/03/14 11:44:44;;;;;;;0.98;0.98;;;;;;;7.36;91.94;101241.59;8267988;34;20317;-73
2022/03/14 11:49:48;;;;;;;1.90;1.80;;;;;;;7.32;92.07;101245.34;8262638;34;20141;-73
2022/03/14 11:54:53;;;;;;;1.02;1.02;;;;;;;7.74;90.27;101234.13;8281789;34;20437;-72
2022/03/14 11:59:57;;;;;;;4.20;1.98;;;;;;;8.10;89.05;101239.22;8302052;34;20444;-73
2022/03/14 12:05:01;;;;;;;3.92;3.67;;;;;;;7.90;87.43;101243.03;8307218;34;20499;-73
2022/03/14 12:10:26;;;;;;;0.70;0.70;;;;;;;7.83;87.23;101248.81;8274471;34;20427;-73
2022/03/14 12:15:44;;;;;;;2.58;2.38;;;;;;;8.08;87.53;101243.78;8283286;34;20218;-73
2022/03/14 12:20:47;;;;;;;0.50;0.50;;;;;;;8.47;85.31;101242.47;8283378;34;20775;-73
2022/03/14 12:25:50;;;;;;;0.88;0.88;;;;;;;8.76;82.40;101242.56;8281661;34;20239;-73
2022/03/14 12:31:01;;;;;;;1.48;1.45;;;;;;;9.06;82.84;101247.91;8271640;34;20441;-73
2022/03/14 12:36:40;;;;;;;1.95;1.48;;;;;;;8.42;79.07;101254.34;8275024;34;20144;-73
2022/03/14 12:41:45;;;;;;;2.45;2.25;;;;;;;8.28;80.68;101244.47;8278595;34;20526;-72
2022/03/14 12:46:55;;;;;;;0.90;0.90;;;;;;;8.61;79.98;101247.00;8267671;34;20546;-72
2022/03/14 12:52:13;;;;;;;0.63;0.63;;;;;;;8.79;79.65;101259.31;8270058;34;20447;-73
2022/03/14 12:57:23;;;;;;;1.58;1.58;;;;;;;8.67;79.83;101273.44;8264448;34;20438;-71
2022/03/14 13:02:30;;;;;;;0.93;0.93;;;;;;;8.25;79.34;101274.94;8265675;34;20465;-74
2022/03/14 13:07:35;;;;;;;6.70;1.50;;;;;;;8.51;79.53;101280.66;8209748;34;20620;-74
2022/03/14 13:12:38;;;;;;;2.08;1.75;;;;;;;8.38;80.07;101285.81;8188096;34;20149;-74
2022/03/14 13:17:49;;;;;;;0.95;0.90;;;;;;;8.59;79.52;101289.97;8209704;34;20495;-72
2022/03/14 13:22:52;;;;;;;0.60;0.60;;;;;;;8.68;79.07;101290.38;8206104;34;20725;-72
2022/03/14 13:27:56;;;;;;;18.83;9.73;;;;;;;8.86;79.14;101293.78;8220701;34;20141;-72
2022/03/14 13:33:00;;;;;;;13.00;7.63;;;;;;;8.42;76.54;101297.19;8262162;34;20187;-72
2022/03/14 13:38:03;;;;;;;20.10;10.73;;;;;;;8.70;76.72;101301.88;8232488;34;20442;-72
2022/03/14 13:43:06;;;;;;;18.65;9.13;;;;;;;8.41;77.60;101320.44;8231518;34;20455;-72
2022/03/14 13:48:11;;;;;;;21.90;10.55;;;;;;;8.44;77.84;101325.63;8289108;34;20489;-71
2022/03/14 13:53:21;;;;;;;21.02;13.23;;;;;;;8.52;77.69;101327.91;8298620;34;21583;-72
2022/03/14 13:58:26;;;;;;;27.60;14.82;;;;;;;8.56;77.50;101324.97;8314372;34;20560;-72
2022/03/14 14:03:32;;;;;;;30.85;15.70;;;;;;;8.30;77.97;101328.22;8314303;34;20624;-71
2022/03/14 14:08:35;;;;;;;27.52;13.40;;;;;;;8.41;78.13;101323.13;8308443;34;20428;-72
2022/03/14 14:13:47;;;;;;;25.85;12.63;;;;;;;8.23;78.46;101341.09;8308719;34;20428;-71
2022/03/14 14:19:11;;;;;;;24.45;13.30;;;;;;;8.26;79.06;101348.09;8309196;34;20443;-72
2022/03/14 14:24:14;;;;;;;26.88;13.48;;;;;;;8.56;77.38;101345.53;8314195;34;20244;-73
2022/03/14 14:29:45;;;;;;;24.90;12.90;;;;;;;8.76;75.18;101341.69;8314653;34;20186;-72
2022/03/14 14:34:49;;;;;;;22.15;11.02;;;;;;;8.72;75.00;101353.53;8293654;34;20152;-73
2022/03/14 14:39:53;;;;;;;20.58;10.52;;;;;;;8.78;74.63;101353.19;8265140;34;20940;-72
2022/03/14 14:44:58;;;;;;;19.60;11.82;;;;;;;9.11;73.80;101357.53;8266946;34;20223;-72
2022/03/14 14:50:04;;;;;;;22.08;11.75;;;;;;;9.11;74.44;101352.16;8270041;34;21015;-72
2022/03/14 14:55:08;;;;;;;20.20;12.60;;;;;;;9.50;77.22;101348.88;8272139;34;20255;-72
2022/03/14 15:00:13;;;;;;;23.48;11.68;;;;;;;9.85;75.75;101348.53;8290796;34;20443;-72
2022/03/14 15:05:17;;;;;;;22.23;12.77;;;;;;;10.16;73.45;101353.69;8292207;34;21656;-73
2022/03/14 15:10:20;;;;;;;18.48;10.20;;;;;;;9.57;70.95;101352.03;8306480;34;20459;-72
2022/03/14 15:15:28;;;;;;;24.23;13.13;;;;;;;9.79;71.39;101368.56;8297833;34;20190;-72
2022/03/14 15:20:33;;;;;;;21.52;12.38;;;;;;;9.81;71.76;101360.38;8309405;34;20180;-73
2022/03/14 15:25:36;;;;;;;22.58;11.60;;;;;;;9.63;71.40;101371.31;8300488;34;20217;-72
2022/03/14 15:30:43;;;;;;;19.75;12.10;;;;;;;10.07;69.44;101375.75;8300014;34;20564;-72
2022/03/14 15:35:48;;;;;;;21.95;11.80;;;;;;;10.35;68.57;101369.47;8292818;34;20473;-73
2022/03/14 15:40:51;;;;;;;16.85;9.45;;;;;;;11.15;65.26;101374.13;8277919;34;20350;-72
2022/03/14 15:45:54;;;;;;;16.73;9.77;;;;;;;10.71;65.21;101369.88;8283235;34;20475;-72
2022/03/14 15:50:59;;;;;;;15.40;8.30;;;;;;;11.31;63.19;101368.56;8284349;34;20467;-72
2022/03/14 15:56:02;;;;;;;15.02;9.15;;;;;;;11.37;63.17;101360.94;8262104;34;20148;-72
2022/03/14 16:01:05;;;;;;;13.88;7.35;;;;;;;10.74;62.80;101367.84;8289345;34;20617;-72
2022/03/14 16:06:09;;;;;;;16.20;9.32;;;;;;;10.63;64.01;101375.75;8291384;34;20545;-73
2022/03/14 16:11:13;;;;;;;15.30;8.07;;;;;;;10.46;62.91;101374.16;8292976;34;20459;-73
2022/03/14 16:16:18;;;;;;;18.60;9.25;;;;;;;11.02;61.67;101384.81;8295362;34;20210;-73
2022/03/14 16:21:23;;;;;;;15.70;7.68;;;;;;;10.68;61.62;101400.50;8291783;34;20517;-72
2022/03/14 16:26:28;;;;;;;13.10;7.68;;;;;;;10.45;62.21;101396.63;8285524;34;20566;-72
2022/03/14 16:31:32;;;;;;;12.95;6.22;;;;;;;10.57;61.84;101406.56;8280058;34;20251;-72
2022/03/14 16:36:37;;;;;;;11.25;8.10;;;;;;;10.08;63.90;101412.38;8228092;34;20439;-73
2022/03/14 16:41:40;;;;;;;14.65;8.30;;;;;;;9.59;65.64;101423.41;8232264;34;20164;-72
2022/03/14 16:46:45;;;;;;;14.68;8.02;;;;;;;9.43;66.48;101418.09;8217397;34;21430;-72
2022/03/14 16:51:50;;;;;;;18.05;7.55;;;;;;;9.01;67.60;101429.56;8214757;34;20441;-72
2022/03/14 16:56:53;;;;;;;13.80;7.22;;;;;;;9.15;67.04;101426.94;8215121;34;20256;-72
2022/03/14 17:01:56;;;;;;;12.23;7.40;;;;;;;9.41;66.28;101437.94;8214564;34;20239;-72
2022/03/14 17:07:01;;;;;;;17.20;8.50;;;;;;;9.63;65.74;101440.22;8211647;34;20436;-73
2022/03/14 17:12:05;;;;;;;14.35;8.10;;;;;;;9.23;66.97;101450.63;8216107;34;20488;-72
2022/03/14 17:17:14;;;;;;;12.88;7.85;;;;;;;8.91;68.62;101449.78;8215935;34;21389;-72
2022/03/14 17:22:19;;;;;;;15.07;8.07;;;;;;;8.93;68.62;101474.69;8217413;34;20425;-72
2022/03/14 17:27:23;;;;;;;13.13;8.00;;;;;;;8.69;70.41;101480.47;8269975;34;20421;-71
2022/03/14 17:32:26;;;;;;;17.30;8.77;;;;;;;8.76;70.66;101499.75;8263247;34;20416;-72
2022/03/14 17:37:32;;;;;;;15.73;8.98;;;;;;;8.68;70.88;101512.72;8268113;34;20559;-72
2022/03/14 17:42:36;;;;;;;14.15;8.02;;;;;;;8.53;71.46;101514.41;8266647;34;21153;-72
2022/03/14 17:47:40;;;;;;;15.75;8.40;;;;;;;8.32;72.15;101519.94;8260724;34;20918;-73
2022/03/14 17:52:44;;;;;;;19.42;8.90;;;;;;;8.42;72.27;101532.84;8268182;34;20293;-72
2022/03/14 18:04:59;;;;;;;15.75;8.43;;;;;;;8.24;72.62;101556.13;8266820;34;22447;-72
2022/03/14 18:10:05;;;;;;;16.95;9.75;;;;;;;8.31;72.29;101552.16;8264837;34;20332;-72
2022/03/14 18:15:10;;;;;;;15.82;8.68;;;;;;;8.14;72.41;101561.06;8275657;34;22021;-73
2022/03/14 18:20:14;;;;;;;14.15;8.80;;;;;;;8.18;72.25;101576.91;8295546;34;20895;-73
2022/03/14 18:25:20;;;;;;;15.63;8.45;;;;;;;8.16;72.14;101584.13;8275000;34;20163;-73
2022/03/14 18:30:23;;;;;;;15.85;8.60;;;;;;;8.10;72.33;101594.31;8287971;34;20202;-72
2022/03/14 18:35:26;;;;;;;13.27;8.25;;;;;;;8.18;71.81;101605.47;8285051;34;20437;-72
2022/03/14 18:40:34;;;;;;;17.45;10.02;;;;;;;8.16;71.67;101593.97;8290242;34;20422;-73
2022/03/14 18:45:38;;;;;;;14.82;8.88;;;;;;;8.20;71.36;101594.69;8278011;34;20448;-72
2022/03/14 18:50:41;;;;;;;13.93;8.25;;;;;;;8.19;71.33;101585.78;8321132;34;20226;-72
2022/03/14 18:55:46;;;;;;;18.35;10.27;;;;;;;8.12;71.53;101590.59;8320411;34;20551;-73
2022/03/14 19:00:51;;;;;;;18.13;10.00;;;;;;;8.15;71.36;101587.78;8319339;34;20147;-72
2022/03/14 19:05:55;;;;;;;16.85;9.60;;;;;;;8.12;71.26;101585.25;8295944;34;20449;-72
2022/03/14 19:10:59;;;;;;;16.80;9.65;;;;;;;8.05;71.76;101602.56;8319522;34;20187;-74
2022/03/14 19:16:02;;;;;;;18.33;8.68;;;;;;;7.82;72.73;101605.56;8320614;34;21033;-74
2022/03/14 19:21:07;;;;;;;16.65;10.40;;;;;;;7.84;72.43;101611.66;8322006;34;20175;-73
2022/03/14 19:26:12;;;;;;;18.05;9.40;;;;;;;7.81;72.84;101619.84;8329675;34;20223;-73
2022/03/14 19:31:15;;;;;;;18.40;10.02;;;;;;;7.81;72.62;101633.22;8310153;34;20453;-74
2022/03/14 19:36:19;;;;;;;18.95;9.98;;;;;;;7.75;72.73;101644.25;8337270;34;20418;-73
2022/03/14 19:41:25;;;;;;;17.17;9.93;;;;;;;7.58;73.25;101643.25;8338371;34;21062;-73
2022/03/14 19:46:28;;;;;;;19.73;10.48;;;;;;;7.77;72.63;101650.38;8328435;34;20250;-72
2022/03/14 19:51:32;;;;;;;21.48;10.73;;;;;;;7.73;72.68;101663.03;8304137;34;20310;-72
2022/03/14 19:56:42;;;;;;;17.83;10.75;;;;;;;7.70;72.74;101653.34;8302858;34;20422;-72
2022/03/14 20:01:48;;;;;;;20.88;10.93;;;;;;;7.64;72.78;101653.66;8307052;34;20868;-72
2022/03/14 20:06:51;;;;;;;19.35;11.13;;;;;;;7.57;72.74;101646.00;8305767;34;20632;-72
2022/03/14 20:11:58;;;;;;;22.02;10.73;;;;;;;7.67;72.57;101639.25;8303395;34;20245;-72
2022/03/14 20:17:03;;;;;;;18.20;10.77;;;;;;;7.58;72.65;101639.72;8323442;34;20708;-72
2022/03/14 20:22:06;;;;;;;20.42;11.82;;;;;;;7.50;72.97;101643.63;8301316;34;20336;-72
2022/03/14 20:27:11;;;;;;;18.42;10.75;;;;;;;7.43;72.85;101646.66;8324264;34;20428;-72
2022/03/14 20:32:15;;;;;;;23.40;12.10;;;;;;;7.40;73.29;101652.16;8324687;34;20209;-73
2022/03/14 20:37:18;;;;;;;21.15;11.98;;;;;;;7.40;73.38;101655.69;8324849;34;20179;-73
2022/03/14 20:42:22;;;;;;;21.58;12.75;;;;;;;7.40;73.34;101657.50;8325815;34;20187;-72
2022/03/14 20:47:25;;;;;;;26.30;13.65;;;;;;;7.36;73.38;101661.28;8323128;34;21392;-73
2022/03/14 20:52:29;;;;;;;24.77;12.80;;;;;;;7.37;73.13;101657.66;8322835;34;20419;-73
2022/03/14 20:57:33;;;;;;;21.33;12.85;;;;;;;7.44;73.13;101651.09;8323991;34;20719;-72
2022/03/14 21:07:57;;;;;;;20.60;11.35;;;;;;;7.43;72.85;101660.91;8322542;34;20151;-72
2022/03/14 21:13:05;;;;;;;25.90;14.63;;;;;;;7.34;72.92;101665.81;8325456;34;22091;-72
2022/03/14 21:18:08;;;;;;;23.08;13.60;;;;;;;7.30;73.02;101667.78;8326983;34;20919;-72
2022/03/14 21:23:12;;;;;;;29.20;14.60;;;;;;;7.26;72.91;101675.06;8328878;34;20417;-72
2022/03/14 21:28:20;;;;;;;22.95;12.88;;;;;;;7.18;73.18;101674.53;8326116;34;20434;-73
2022/03/14 21:33:24;;;;;;;25.55;13.65;;;;;;;7.22;72.92;101683.31;8295327;34;20480;-72
2022/03/14 21:38:27;;;;;;;24.35;13.90;;;;;;;7.17;72.91;101682.66;8299366;34;20293;-71
2022/03/14 21:43:31;;;;;;;25.33;13.90;;;;;;;7.18;72.55;101687.03;8283859;34;20318;-72
2022/03/14 21:48:34;;;;;;;24.48;14.18;;;;;;;7.06;72.51;101688.47;8296121;34;20466;-72
2022/03/14 21:53:42;;;;;;;23.60;13.68;;;;;;;6.91;72.62;101674.03;8293915;34;20195;-71
2022/03/14 21:58:50;;;;;;;21.80;13.18;;;;;;;6.73;73.16;101669.47;8289845;34;20501;-72
2022/03/14 22:03:55;;;;;;;33.47;13.93;;;;;;;6.71;74.24;101660.66;8296373;34;20923;-71
2022/03/14 22:08:58;;;;;;;23.60;13.75;;;;;;;6.59;75.15;101662.94;8284037;34;21467;-72
2022/03/14 22:14:02;;;;;;;30.90;14.55;;;;;;;6.62;75.32;101667.28;8264559;34;20163;-72
2022/03/14 22:19:06;;;;;;;26.13;13.52;;;;;;;6.58;75.47;101676.34;8242236;34;21178;-74
2022/03/14 22:24:09;;;;;;;27.98;14.40;;;;;;;6.55;75.96;101673.81;8270017;34;20531;-74
2022/03/14 22:29:13;;;;;;;25.30;14.02;;;;;;;6.52;76.07;101665.94;8263432;34;21341;-74
2022/03/14 22:34:16;;;;;;;31.52;15.68;;;;;;;6.49;75.88;101666.06;8265311;34;20545;-73
2022/03/14 22:39:20;;;;;;;28.67;14.63;;;;;;;6.36;76.09;101663.94;8263556;34;20440;-73
2022/03/14 22:44:25;;;;;;;28.23;14.88;;;;;;;6.28;75.75;101670.53;8261195;34;20438;-74
2022/03/14 22:49:28;;;;;;;28.88;15.73;;;;;;;6.13;76.37;101669.38;8260808;34;20195;-73
2022/03/14 22:54:31;;;;;;;28.10;14.60;;;;;;;6.15;76.65;101673.72;8260322;34;20448;-73
2022/03/14 22:59:36;;;;;;;27.30;14.75;;;;;;;6.12;76.57;101665.00;8259220;34;20477;-74
2022/03/14 23:10:00;;;;;;;29.75;15.73;;;;;;;6.06;76.63;101651.88;8259008;34;20505;-74
2022/03/14 23:15:09;;;;;;;33.03;16.48;;;;;;;5.97;76.06;101642.47;8259109;34;20436;-74
2022/03/14 23:20:18;;;;;;;31.95;16.25;;;;;;;5.85;76.47;101645.66;8262793;34;20204;-74
2022/03/14 23:25:22;;;;;;;31.27;17.05;;;;;;;5.78;76.66;101657.50;8264169;34;20670;-74
2022/03/14 23:30:26;;;;;;;25.95;14.38;;;;;;;5.65;76.71;101662.44;8263705;34;20432;-74
2022/03/14 23:35:30;;;;;;;25.45;14.95;;;;;;;5.62;77.20;101660.81;8261831;34;20439;-73
2022/03/14 23:40:36;;;;;;;21.48;13.15;;;;;;;5.68;77.10;101662.34;8245123;34;20558;-73
2022/03/14 23:45:43;;;;;;;18.73;11.27;;;;;;;5.74;76.74;101670.09;8269997;34;20430;-73
2022/03/14 23:50:46;;;;;;;21.35;10.93;;;;;;;5.79;76.31;101676.13;8270438;34;21005;-73
2022/03/14 23:55:49;;;;;;;17.48;10.93;;;;;;;5.84;75.94;101681.25;8270233;34;20196;-73
